Terminal Aerodrome Forecast
Issued by NWS Wilmington, NC

Home | Current Version | Previous Version | Text Only | Print | Product List | Glossary On
Versions: 1 2 3 4 5 6 7 8 9 10 11 12 13 14 15 16 17 18 19 20
000
FTUS42 KILM 251721
TAFLBT
TAF
KLBT 251721Z 2518/2618 05010KT P6SM BKN010
     FM260000 05006KT P6SM BKN015
     FM261300 02010KT P6SM SCT020
      AMD NOT SKED=

USA.gov is the U.S. government's official web portal to all federal, state and local government web resources and services.